Time;durP1;ratioP1;P1;durP2;ratioP2;P2;SDS_P1;SDS_P2;PMS_P1;PMS_P2;Temp;Humidity;BMP_temperature;BMP_pressure;BME280_temperature;BME280_humidity;BME280_pressure;Samples;Min_cycle;Max_cycle;Signal;HPM_P1;HPM_P2
2023/06/28 00:01:26;;;;;;;1.90;1.70;;;15.30;99.90;;;;;;5107109;28;20506;-75
2023/06/28 00:03:53;;;;;;;1.27;1.17;;;15.20;99.90;;;;;;5106623;28;21190;-76
2023/06/28 00:06:20;;;;;;;2.73;1.33;;;15.00;99.90;;;;;;5101966;28;20462;-76
2023/06/28 00:08:47;;;;;;;2.60;1.37;;;15.00;99.90;;;;;;5103829;28;20451;-78
2023/06/28 00:11:16;;;;;;;1.53;1.43;;;15.00;99.90;;;;;;5105753;28;21015;-77
2023/06/28 00:13:43;;;;;;;4.03;1.27;;;14.90;99.90;;;;;;5101851;28;20519;-75
2023/06/28 00:16:10;;;;;;;1.13;1.03;;;14.90;99.90;;;;;;5101801;28;21558;-76
2023/06/28 00:18:37;;;;;;;1.20;1.10;;;14.90;99.90;;;;;;5108038;27;20494;-75
2023/06/28 00:21:04;;;;;;;3.63;1.50;;;14.90;99.90;;;;;;5102199;28;20528;-75
2023/06/28 00:23:31;;;;;;;3.37;1.40;;;14.90;99.90;;;;;;5094405;28;20487;-75
2023/06/28 00:25:57;;;;;;;1.10;0.90;;;14.90;99.90;;;;;;5106742;27;20879;-78
2023/06/28 00:28:26;;;;;;;1.63;0.90;;;14.90;99.90;;;;;;5097689;27;20543;-79
2023/06/28 00:30:53;;;;;;;1.90;1.40;;;14.80;99.90;;;;;;5103889;28;20490;-76
2023/06/28 00:33:20;;;;;;;1.00;0.70;;;14.80;99.90;;;;;;5105891;28;21309;-76
2023/06/28 00:35:47;;;;;;;2.00;0.90;;;14.80;99.90;;;;;;5108107;27;20904;-77
2023/06/28 00:38:15;;;;;;;3.33;1.50;;;14.80;99.90;;;;;;5108209;27;20442;-76
2023/06/28 00:40:42;;;;;;;2.10;1.00;;;14.80;99.90;;;;;;5106835;28;20536;-75
2023/06/28 00:43:09;;;;;;;1.90;1.37;;;14.60;99.90;;;;;;5104856;28;20463;-78
2023/06/28 00:45:37;;;;;;;2.37;1.40;;;14.50;99.90;;;;;;5107324;27;20470;-74
2023/06/28 00:48:04;;;;;;;2.80;1.20;;;14.30;99.90;;;;;;5105406;28;20515;-74
2023/06/28 00:50:32;;;;;;;2.17;1.20;;;14.30;99.90;;;;;;5109423;28;20455;-76
2023/06/28 00:52:59;;;;;;;2.87;1.90;;;14.30;99.90;;;;;;5101603;28;20458;-76
2023/06/28 00:55:26;;;;;;;1.70;1.60;;;14.30;99.90;;;;;;5103386;28;20450;-78
2023/06/28 00:57:53;;;;;;;5.20;2.07;;;14.20;99.90;;;;;;5098373;28;20528;-76
2023/06/28 01:00:21;;;;;;;2.70;1.57;;;14.00;99.90;;;;;;5103959;28;20505;-78
2023/06/28 01:02:49;;;;;;;1.10;1.00;;;13.70;99.90;;;;;;5101386;28;21278;-74
2023/06/28 01:05:19;;;;;;;2.70;1.30;;;13.50;99.90;;;;;;5104821;28;20479;-73
2023/06/28 01:07:48;;;;;;;1.87;1.53;;;13.20;99.90;;;;;;5101603;27;20527;-75
2023/06/28 01:10:17;;;;;;;1.40;1.30;;;13.10;99.90;;;;;;5107179;28;20442;-73
2023/06/28 01:12:45;;;;;;;1.77;1.47;;;12.90;99.90;;;;;;5103897;28;20463;-75
2023/06/28 01:15:12;;;;;;;3.10;1.07;;;12.80;99.90;;;;;;5106421;28;20446;-76
2023/06/28 01:17:39;;;;;;;1.53;1.20;;;12.80;99.90;;;;;;5112142;27;21257;-72
2023/06/28 01:20:10;;;;;;;4.90;1.07;;;12.80;99.90;;;;;;5100349;27;20527;-76
2023/06/28 01:22:40;;;;;;;2.93;2.40;;;12.70;99.90;;;;;;5105438;28;21236;-72
2023/06/28 01:25:10;;;;;;;1.93;1.83;;;12.80;99.90;;;;;;5101614;27;21263;-73
2023/06/28 01:27:44;;;;;;;1.57;1.47;;;12.80;99.90;;;;;;5107539;28;20447;-73
2023/06/28 01:30:14;;;;;;;3.03;1.53;;;12.80;99.90;;;;;;5101861;28;20455;-78
2023/06/28 01:32:41;;;;;;;2.47;2.27;;;12.80;99.90;;;;;;5105942;27;20486;-75
2023/06/28 01:35:09;;;;;;;4.67;1.93;;;12.70;99.90;;;;;;5104660;28;20446;-74
2023/06/28 01:37:36;;;;;;;2.87;1.80;;;12.80;99.90;;;;;;5106842;28;20459;-79
2023/06/28 01:40:05;;;;;;;1.50;1.37;;;12.80;99.90;;;;;;5097793;28;20491;-77
2023/06/28 01:42:35;;;;;;;1.87;1.77;;;12.70;99.90;;;;;;5101370;28;20479;-78
2023/06/28 01:45:02;;;;;;;2.20;1.40;;;12.70;99.90;;;;;;5101976;28;20503;-77
2023/06/28 01:47:29;;;;;;;2.60;1.70;;;12.60;99.90;;;;;;5101289;28;20478;-76
2023/06/28 01:49:57;;;;;;;2.87;1.70;;;12.60;99.90;;;;;;5099829;27;20444;-75
2023/06/28 01:52:25;;;;;;;1.93;1.33;;;12.50;99.90;;;;;;5100980;28;20502;-75
2023/06/28 01:54:52;;;;;;;2.10;1.20;;;12.50;99.90;;;;;;5102004;28;20675;-76
2023/06/28 01:57:19;;;;;;;1.73;1.63;;;12.40;99.90;;;;;;5097288;28;21274;-73
2023/06/28 01:59:47;;;;;;;3.03;1.40;;;12.40;99.90;;;;;;5105383;28;20473;-76
2023/06/28 02:02:14;;;;;;;1.93;1.63;;;12.40;99.90;;;;;;5102624;28;20514;-75
2023/06/28 02:04:41;;;;;;;3.13;1.20;;;12.40;99.90;;;;;;5106942;28;20547;-73
2023/06/28 02:07:08;;;;;;;1.60;1.50;;;12.30;99.90;;;;;;5104672;28;20530;-74
2023/06/28 02:09:35;;;;;;;1.70;1.60;;;12.30;99.90;;;;;;5103188;28;20523;-74
2023/06/28 02:12:02;;;;;;;4.50;2.17;;;12.30;99.90;;;;;;5104588;28;20479;-74
2023/06/28 02:14:29;;;;;;;2.00;1.70;;;12.40;99.90;;;;;;5099981;28;20544;-74
2023/06/28 02:16:57;;;;;;;2.27;2.03;;;12.40;99.90;;;;;;5098152;28;20474;-73
2023/06/28 02:19:24;;;;;;;2.37;1.93;;;12.40;99.90;;;;;;5096956;28;21089;-73
2023/06/28 02:21:51;;;;;;;3.20;2.93;;;12.40;99.90;;;;;;5098318;28;20573;-73
2023/06/28 02:24:18;;;;;;;4.00;2.00;;;12.50;99.90;;;;;;5106114;28;20513;-73
2023/06/28 02:26:45;;;;;;;2.23;1.70;;;12.40;99.90;;;;;;5098597;28;20551;-74
2023/06/28 02:29:12;;;;;;;3.07;2.13;;;12.40;99.90;;;;;;5097682;28;20541;-74
2023/06/28 02:31:38;;;;;;;2.43;2.07;;;12.40;99.90;;;;;;5102668;28;21050;-74
2023/06/28 02:34:07;;;;;;;5.73;2.07;;;12.60;99.90;;;;;;5102385;28;20461;-75
2023/06/28 02:36:34;;;;;;;5.80;2.30;;;12.60;99.90;;;;;;5102556;28;20486;-75
2023/06/28 02:39:00;;;;;;;3.53;2.10;;;12.70;99.90;;;;;;5098695;28;20466;-73
2023/06/28 02:41:29;;;;;;;6.63;2.27;;;12.60;99.90;;;;;;5104477;28;20497;-72
2023/06/28 02:43:56;;;;;;;3.83;3.57;;;12.80;99.90;;;;;;5106435;28;20438;-73
2023/06/28 02:46:23;;;;;;;2.30;2.07;;;12.90;99.90;;;;;;5098752;28;20487;-72
2023/06/28 02:48:50;;;;;;;2.33;2.13;;;12.90;99.90;;;;;;5110819;27;20793;-75
2023/06/28 02:51:18;;;;;;;1.83;1.73;;;12.90;99.90;;;;;;5105767;28;20512;-75
2023/06/28 02:53:45;;;;;;;2.20;2.10;;;13.10;99.90;;;;;;5097583;28;20467;-76
2023/06/28 02:56:15;;;;;;;5.20;3.30;;;13.10;99.90;;;;;;5110342;28;20527;-73
2023/06/28 02:58:42;;;;;;;4.60;2.57;;;13.20;99.90;;;;;;5105750;27;20508;-75
2023/06/28 03:01:09;;;;;;;7.43;3.30;;;13.00;99.90;;;;;;5107725;27;21081;-72
2023/06/28 03:03:36;;;;;;;1.83;1.73;;;12.90;99.90;;;;;;5105055;27;20466;-73
2023/06/28 03:06:04;;;;;;;5.37;3.60;;;12.90;99.90;;;;;;5106960;28;20973;-73
2023/06/28 03:08:32;;;;;;;4.97;2.30;;;13.00;99.90;;;;;;5105575;28;20472;-73
2023/06/28 03:11:00;;;;;;;4.70;2.80;;;12.90;99.90;;;;;;5106645;28;20607;-77
2023/06/28 03:13:27;;;;;;;4.20;3.50;;;13.00;99.90;;;;;;5106663;28;20466;-73
2023/06/28 03:15:54;;;;;;;3.80;2.90;;;13.00;99.90;;;;;;5108050;28;20499;-73
2023/06/28 03:18:21;;;;;;;5.50;3.00;;;12.90;99.90;;;;;;5107570;27;20822;-74
2023/06/28 03:20:48;;;;;;;3.50;3.10;;;12.90;99.90;;;;;;5111996;27;20454;-73
2023/06/28 03:23:15;;;;;;;3.73;2.90;;;12.90;99.90;;;;;;5107311;28;20501;-75
2023/06/28 03:25:43;;;;;;;2.93;2.63;;;12.90;99.90;;;;;;5108995;28;20555;-73
2023/06/28 03:28:11;;;;;;;3.10;2.90;;;12.80;99.90;;;;;;5104915;28;20473;-75
2023/06/28 03:30:38;;;;;;;2.50;2.30;;;12.60;99.90;;;;;;5105398;28;20491;-76
2023/06/28 03:33:04;;;;;;;2.17;1.97;;;12.60;99.90;;;;;;5106030;28;20478;-76
2023/06/28 03:35:31;;;;;;;7.33;3.27;;;12.60;99.90;;;;;;5108401;28;20475;-73
2023/06/28 03:37:58;;;;;;;3.60;3.30;;;12.50;99.90;;;;;;5106821;27;20540;-73
2023/06/28 03:40:25;;;;;;;3.37;2.50;;;12.60;99.90;;;;;;5102488;28;20885;-72
2023/06/28 03:42:53;;;;;;;2.47;2.10;;;12.60;99.90;;;;;;5109595;27;20514;-73
2023/06/28 03:45:20;;;;;;;3.97;2.80;;;12.60;99.90;;;;;;5106954;28;20494;-75
2023/06/28 03:47:48;;;;;;;2.80;2.50;;;12.70;99.90;;;;;;5108326;28;20582;-73
2023/06/28 03:50:15;;;;;;;4.00;2.20;;;12.80;99.90;;;;;;5102850;27;20949;-75
2023/06/28 03:52:42;;;;;;;3.97;2.70;;;12.80;99.90;;;;;;5111222;28;20434;-75
2023/06/28 03:55:10;;;;;;;2.67;1.93;;;12.80;99.90;;;;;;5109154;28;20446;-75
2023/06/28 03:57:37;;;;;;;2.57;2.37;;;12.80;99.90;;;;;;5113256;28;20557;-77
2023/06/28 04:00:08;;;;;;;2.10;1.90;;;12.80;99.90;;;;;;5113277;28;20470;-74
2023/06/28 04:02:35;;;;;;;1.93;1.40;;;12.70;99.90;;;;;;5105856;27;20570;-74
2023/06/28 04:05:03;;;;;;;3.90;2.53;;;12.80;99.90;;;;;;5105690;28;20494;-74
2023/06/28 04:07:30;;;;;;;3.03;2.83;;;12.80;99.90;;;;;;5098610;27;20450;-74
2023/06/28 04:09:57;;;;;;;2.47;2.27;;;12.70;99.90;;;;;;5107188;28;20438;-79
2023/06/28 04:12:24;;;;;;;2.43;2.23;;;12.60;99.90;;;;;;5104773;28;21020;-76
2023/06/28 04:14:52;;;;;;;1.77;1.47;;;12.60;99.90;;;;;;5103795;28;20547;-74
2023/06/28 04:17:20;;;;;;;2.27;2.07;;;12.50;99.90;;;;;;5106337;28;20458;-73
2023/06/28 04:19:47;;;;;;;2.13;2.00;;;12.40;99.90;;;;;;5105909;28;20462;-74
2023/06/28 04:22:14;;;;;;;2.23;1.97;;;12.30;99.90;;;;;;5093452;27;20564;-74
2023/06/28 04:24:42;;;;;;;2.47;1.50;;;12.30;99.90;;;;;;5103270;27;20505;-74
2023/06/28 04:27:09;;;;;;;3.00;2.03;;;12.40;99.90;;;;;;5107430;28;20924;-78
2023/06/28 04:29:36;;;;;;;3.50;3.20;;;12.40;99.90;;;;;;5098950;27;20474;-75
2023/06/28 04:32:03;;;;;;;5.60;2.67;;;12.50;99.90;;;;;;5104958;27;20486;-75
2023/06/28 04:34:32;;;;;;;2.63;2.50;;;12.50;99.90;;;;;;5106899;27;20471;-74
2023/06/28 04:37:00;;;;;;;4.13;3.77;;;12.40;99.90;;;;;;5101939;27;20446;-74
2023/06/28 04:39:27;;;;;;;4.80;2.20;;;12.40;99.90;;;;;;5101575;28;20462;-74
2023/06/28 04:41:54;;;;;;;1.97;1.53;;;12.40;99.90;;;;;;5102255;27;20518;-78
2023/06/28 04:44:21;;;;;;;2.97;2.10;;;12.40;99.90;;;;;;5104418;27;20466;-76
2023/06/28 04:46:48;;;;;;;1.20;1.10;;;12.50;99.90;;;;;;5110217;27;20486;-74
2023/06/28 04:49:15;;;;;;;1.90;1.27;;;12.50;99.90;;;;;;5104928;28;20512;-74
2023/06/28 04:51:43;;;;;;;1.57;1.20;;;12.60;99.90;;;;;;5106650;28;20473;-74
2023/06/28 04:54:10;;;;;;;2.83;1.20;;;12.60;99.90;;;;;;5103691;28;20470;-73
2023/06/28 04:56:37;;;;;;;1.30;1.10;;;12.60;99.90;;;;;;5102552;27;20543;-76
2023/06/28 04:59:05;;;;;;;1.20;1.10;;;12.80;99.90;;;;;;5103133;28;20453;-79
2023/06/28 05:01:34;;;;;;;2.37;1.77;;;13.00;99.90;;;;;;5102382;27;20986;-74
2023/06/28 05:04:01;;;;;;;1.00;1.00;;;13.10;99.90;;;;;;5106483;28;20507;-74
2023/06/28 05:06:28;;;;;;;0.80;0.80;;;13.20;99.90;;;;;;5106478;28;20486;-74
2023/06/28 05:08:57;;;;;;;0.70;0.70;;;13.20;99.90;;;;;;5100784;28;21157;-74
2023/06/28 05:11:24;;;;;;;3.33;0.70;;;13.50;99.90;;;;;;5100515;27;20462;-76
2023/06/28 05:13:50;;;;;;;0.70;0.70;;;13.80;99.90;;;;;;5105707;28;20494;-74
2023/06/28 05:16:17;;;;;;;0.80;0.70;;;14.10;99.90;;;;;;5101337;27;20494;-74
2023/06/28 05:18:45;;;;;;;1.30;0.80;;;14.10;99.90;;;;;;5102911;28;20490;-74
2023/06/28 05:21:11;;;;;;;1.53;0.60;;;13.90;99.90;;;;;;5104149;28;20458;-77
2023/06/28 05:23:38;;;;;;;0.93;0.80;;;13.70;99.90;;;;;;5103787;28;20522;-74
2023/06/28 05:26:07;;;;;;;1.23;0.90;;;14.00;99.90;;;;;;5113485;28;20482;-78
2023/06/28 05:28:33;;;;;;;0.63;0.57;;;14.10;99.90;;;;;;5106646;28;20470;-77
2023/06/28 05:31:01;;;;;;;0.70;0.70;;;14.30;99.90;;;;;;5115838;27;20458;-75
2023/06/28 05:33:29;;;;;;;0.80;0.60;;;14.50;99.90;;;;;;5106368;27;20475;-77
2023/06/28 05:35:56;;;;;;;1.40;1.00;;;14.80;99.90;;;;;;5104319;28;20553;-74
2023/06/28 05:38:22;;;;;;;0.70;0.70;;;14.60;99.90;;;;;;5106364;28;20487;-74
2023/06/28 05:40:55;;;;;;;0.80;0.60;;;14.70;99.90;;;;;;5101079;28;20497;-84
2023/06/28 05:43:23;;;;;;;3.17;1.00;;;14.80;99.90;;;;;;5100725;28;20493;-73
2023/06/28 05:45:51;;;;;;;1.00;1.00;;;14.80;99.90;;;;;;5105378;28;20883;-75
2023/06/28 05:48:17;;;;;;;1.40;0.90;;;14.50;99.90;;;;;;5098690;27;20551;-78
2023/06/28 05:50:45;;;;;;;1.23;0.70;;;14.40;99.90;;;;;;5103459;28;20971;-76
2023/06/28 05:53:12;;;;;;;1.53;1.00;;;14.50;99.90;;;;;;5102952;28;20577;-75
2023/06/28 05:55:39;;;;;;;0.80;0.80;;;14.90;99.90;;;;;;5103678;28;20458;-75
2023/06/28 05:58:06;;;;;;;1.20;1.00;;;15.10;99.90;;;;;;5102823;28;20482;-76
2023/06/28 06:00:34;;;;;;;1.57;1.00;;;15.30;99.90;;;;;;5107091;28;20451;-74
2023/06/28 06:03:02;;;;;;;1.90;0.80;;;15.30;99.90;;;;;;5104519;27;21039;-76
2023/06/28 06:05:29;;;;;;;0.80;0.80;;;15.60;99.90;;;;;;5104662;28;20457;-75
2023/06/28 06:07:56;;;;;;;0.70;0.70;;;15.50;99.90;;;;;;5105408;28;20475;-75
2023/06/28 06:10:23;;;;;;;0.90;0.90;;;15.70;99.90;;;;;;5101051;28;20458;-78
2023/06/28 06:12:53;;;;;;;1.83;1.07;;;15.80;99.90;;;;;;5101375;28;20781;-78
2023/06/28 06:15:20;;;;;;;1.03;0.90;;;16.00;99.90;;;;;;5105547;28;20454;-76
2023/06/28 06:17:48;;;;;;;1.43;1.00;;;16.00;99.90;;;;;;5106116;28;20527;-75
2023/06/28 06:20:15;;;;;;;3.13;0.90;;;16.20;99.90;;;;;;5103566;28;20451;-78
2023/06/28 06:22:42;;;;;;;1.10;1.00;;;16.00;99.90;;;;;;5107695;27;21024;-76
2023/06/28 06:25:10;;;;;;;0.90;0.73;;;16.20;99.90;;;;;;5107898;28;20466;-77
2023/06/28 06:27:37;;;;;;;0.87;0.80;;;16.20;99.90;;;;;;5106295;28;20470;-75
2023/06/28 06:30:05;;;;;;;1.63;0.93;;;16.20;99.90;;;;;;5109272;27;20504;-78
2023/06/28 06:32:32;;;;;;;0.80;0.80;;;16.50;99.90;;;;;;5100149;28;20450;-77
2023/06/28 06:35:01;;;;;;;1.73;0.80;;;16.40;99.90;;;;;;5112463;27;20473;-78
2023/06/28 06:37:28;;;;;;;1.20;1.10;;;16.50;99.90;;;;;;5111218;27;20452;-75
2023/06/28 06:39:55;;;;;;;1.23;1.23;;;16.60;99.90;;;;;;5105102;27;20516;-77
2023/06/28 06:42:22;;;;;;;1.00;0.80;;;16.20;99.90;;;;;;5110576;27;20509;-75
2023/06/28 06:44:49;;;;;;;0.97;0.93;;;16.10;99.90;;;;;;5109207;28;20458;-77
2023/06/28 06:47:16;;;;;;;1.60;1.10;;;16.30;99.90;;;;;;5111501;28;20832;-79
2023/06/28 06:49:43;;;;;;;0.90;0.90;;;16.50;99.90;;;;;;5112177;28;20473;-76
2023/06/28 06:52:11;;;;;;;1.17;0.97;;;16.70;99.90;;;;;;5108938;28;20490;-78
2023/06/28 06:54:38;;;;;;;1.20;1.10;;;16.90;99.90;;;;;;5121634;28;20459;-76
2023/06/28 06:57:06;;;;;;;2.80;0.90;;;17.40;99.90;;;;;;5107809;28;20491;-77
2023/06/28 06:59:33;;;;;;;1.50;0.97;;;17.50;99.90;;;;;;5112392;28;20442;-77
2023/06/28 07:02:00;;;;;;;1.67;0.80;;;17.70;99.90;;;;;;5093952;27;20603;-78
2023/06/28 07:04:27;;;;;;;1.53;1.20;;;18.00;99.90;;;;;;5110986;27;20519;-76
2023/06/28 07:06:55;;;;;;;2.07;1.30;;;18.00;99.90;;;;;;5103036;28;20487;-79
2023/06/28 07:09:24;;;;;;;1.20;1.10;;;17.80;99.90;;;;;;5104952;28;20941;-79
2023/06/28 07:11:51;;;;;;;1.87;1.30;;;17.70;99.90;;;;;;5109581;28;20454;-78
2023/06/28 07:14:18;;;;;;;1.37;1.27;;;17.40;99.90;;;;;;5109432;28;20478;-78
2023/06/28 07:16:45;;;;;;;1.80;1.70;;;17.40;99.90;;;;;;5108251;28;20771;-79
2023/06/28 07:19:12;;;;;;;1.50;1.40;;;17.10;99.90;;;;;;5108302;28;20442;-79
2023/06/28 07:21:39;;;;;;;2.03;1.30;;;17.30;99.90;;;;;;5106176;27;20922;-77
2023/06/28 07:24:07;;;;;;;2.20;1.23;;;17.40;99.90;;;;;;5108754;28;20478;-78
2023/06/28 07:26:35;;;;;;;2.00;1.67;;;17.20;99.90;;;;;;5109671;28;20474;-79
2023/06/28 07:29:02;;;;;;;2.90;1.63;;;17.40;99.90;;;;;;5101509;28;20478;-78
2023/06/28 07:31:29;;;;;;;1.30;1.20;;;17.40;99.90;;;;;;5104166;28;20547;-76
2023/06/28 07:33:57;;;;;;;2.13;1.80;;;17.00;99.90;;;;;;5106554;27;20454;-77
2023/06/28 07:36:24;;;;;;;1.90;1.50;;;17.00;99.90;;;;;;5102803;27;20486;-78
2023/06/28 07:38:51;;;;;;;1.43;1.20;;;17.20;99.90;;;;;;5106669;28;20458;-79
2023/06/28 07:41:18;;;;;;;1.97;1.13;;;17.70;99.90;;;;;;5106578;28;20450;-78
2023/06/28 07:43:47;;;;;;;1.77;1.67;;;17.50;99.90;;;;;;5106813;28;20509;-78
2023/06/28 07:46:14;;;;;;;2.00;1.90;;;17.40;99.90;;;;;;5108030;27;20439;-77
2023/06/28 07:48:41;;;;;;;2.77;2.00;;;17.40;99.90;;;;;;5103908;27;21037;-77
2023/06/28 07:51:08;;;;;;;2.30;1.13;;;18.10;99.90;;;;;;5107803;28;20993;-76
2023/06/28 07:53:34;;;;;;;1.60;1.50;;;18.30;99.90;;;;;;5104179;28;20535;-78
2023/06/28 07:56:02;;;;;;;1.20;1.10;;;18.30;99.90;;;;;;5102400;28;20863;-79
2023/06/28 07:58:29;;;;;;;2.17;1.97;;;18.10;99.90;;;;;;5105322;28;20463;-78
2023/06/28 08:00:57;;;;;;;1.50;1.40;;;18.60;99.90;;;;;;5102288;27;20478;-77
2023/06/28 08:03:24;;;;;;;2.03;1.93;;;18.90;99.90;;;;;;5107953;27;20557;-76
2023/06/28 08:05:51;;;;;;;1.87;1.63;;;19.20;99.90;;;;;;5110412;27;20452;-77
2023/06/28 08:08:18;;;;;;;1.93;1.80;;;19.10;99.90;;;;;;5108851;28;20491;-78
2023/06/28 08:10:45;;;;;;;2.63;2.43;;;19.00;99.90;;;;;;5107740;28;20500;-77
2023/06/28 08:13:11;;;;;;;2.60;1.37;;;19.40;99.90;;;;;;5108808;28;20480;-77
2023/06/28 08:15:39;;;;;;;1.07;1.00;;;19.50;99.90;;;;;;5105661;27;20499;-78
2023/06/28 08:18:09;;;;;;;2.10;2.00;;;19.90;99.90;;;;;;5102730;27;20453;-76
2023/06/28 08:20:36;;;;;;;4.20;2.17;;;19.70;99.90;;;;;;5108737;27;20456;-77
2023/06/28 08:23:03;;;;;;;2.03;1.80;;;19.30;99.90;;;;;;5107508;28;20827;-77
2023/06/28 08:25:30;;;;;;;1.77;1.67;;;19.00;99.90;;;;;;5110020;28;20879;-77
2023/06/28 08:27:57;;;;;;;1.67;1.50;;;18.80;99.90;;;;;;5108699;27;20934;-79
2023/06/28 08:30:24;;;;;;;3.13;2.00;;;18.80;99.90;;;;;;5106050;28;20521;-78
2023/06/28 08:32:51;;;;;;;1.83;1.73;;;18.40;99.90;;;;;;5106910;28;20487;-76
2023/06/28 08:35:19;;;;;;;2.40;2.30;;;18.10;99.90;;;;;;5101846;27;20517;-77
2023/06/28 08:37:46;;;;;;;3.13;2.27;;;17.90;99.90;;;;;;5103721;28;20512;-78
2023/06/28 08:40:13;;;;;;;4.73;1.97;;;18.30;99.90;;;;;;5099302;27;20978;-78
2023/06/28 08:42:41;;;;;;;5.03;1.27;;;18.30;99.90;;;;;;5107698;28;20443;-75
2023/06/28 08:45:10;;;;;;;2.67;2.47;;;18.20;99.90;;;;;;5102294;27;20473;-75
2023/06/28 08:47:39;;;;;;;4.67;1.87;;;18.20;99.90;;;;;;5106514;27;20914;-78
2023/06/28 08:50:07;;;;;;;2.00;1.77;;;18.20;99.90;;;;;;5115260;27;20440;-78
2023/06/28 08:52:37;;;;;;;1.70;1.60;;;18.50;99.90;;;;;;5104057;28;20518;-78
2023/06/28 08:55:04;;;;;;;2.07;1.33;;;19.20;99.90;;;;;;5102221;28;20500;-77
2023/06/28 08:57:32;;;;;;;1.40;1.30;;;18.80;99.40;;;;;;5102119;28;20475;-79
2023/06/28 09:00:00;;;;;;;3.33;1.20;;;18.30;99.90;;;;;;5107967;28;20436;-76
2023/06/28 09:02:30;;;;;;;2.00;1.20;;;18.60;99.90;;;;;;5103158;28;20545;-79
2023/06/28 09:04:57;;;;;;;2.10;1.03;;;19.00;98.70;;;;;;5106736;27;20478;-77
2023/06/28 09:07:25;;;;;;;4.20;1.57;;;19.40;97.00;;;;;;5106293;28;20492;-79
2023/06/28 09:09:54;;;;;;;1.30;1.20;;;19.40;94.80;;;;;;5103892;28;20464;-79
2023/06/28 09:12:21;;;;;;;4.23;1.80;;;19.40;96.00;;;;;;5101300;28;20500;-76
2023/06/28 09:14:49;;;;;;;6.27;1.20;;;19.70;96.60;;;;;;5105519;28;20875;-79
2023/06/28 09:17:16;;;;;;;1.87;1.00;;;20.10;95.30;;;;;;5105883;28;20571;-77
2023/06/28 09:19:44;;;;;;;1.50;1.10;;;20.20;96.00;;;;;;5107425;28;20508;-76
2023/06/28 09:22:11;;;;;;;1.50;1.33;;;19.80;94.80;;;;;;5105682;28;20523;-76
2023/06/28 09:24:39;;;;;;;1.20;1.10;;;19.10;94.80;;;;;;5105220;28;20908;-77
2023/06/28 09:27:08;;;;;;;1.67;1.27;;;19.00;96.60;;;;;;5104267;28;20532;-80
2023/06/28 09:29:35;;;;;;;1.00;0.90;;;19.30;97.40;;;;;;5103653;28;20527;-77
2023/06/28 09:32:02;;;;;;;3.10;1.20;;;19.40;95.70;;;;;;5101022;28;20494;-76
2023/06/28 09:34:30;;;;;;;1.00;1.00;;;20.00;96.50;;;;;;5109780;27;20469;-76
2023/06/28 09:36:59;;;;;;;1.40;1.30;;;20.60;95.20;;;;;;5106435;28;20483;-77
2023/06/28 09:39:26;;;;;;;1.40;1.00;;;20.70;93.30;;;;;;5105219;28;21021;-78
2023/06/28 09:41:55;;;;;;;2.03;1.10;;;20.30;92.50;;;;;;5106166;28;20474;-77
2023/06/28 09:44:29;;;;;;;1.10;1.00;;;19.40;94.10;;;;;;5108747;28;20484;-79
2023/06/28 09:47:02;;;;;;;5.43;1.30;;;19.70;96.20;;;;;;5111756;28;20484;-79
2023/06/28 09:49:29;;;;;;;0.90;0.90;;;20.00;96.50;;;;;;5108704;27;20446;-80
2023/06/28 09:51:58;;;;;;;1.40;1.30;;;20.30;94.40;;;;;;5103451;28;20612;-76
2023/06/28 09:54:32;;;;;;;1.53;0.90;;;20.70;95.00;;;;;;5103704;28;20481;-77
2023/06/28 09:57:00;;;;;;;1.73;1.33;;;20.80;92.80;;;;;;5103412;28;20467;-78
2023/06/28 09:59:33;;;;;;;2.23;1.90;;;20.80;92.80;;;;;;5101978;27;20895;-78
2023/06/28 10:02:02;;;;;;;1.20;1.10;;;21.00;92.20;;;;;;5099564;27;20465;-78
2023/06/28 10:04:30;;;;;;;1.00;0.90;;;20.90;91.50;;;;;;5101192;28;20568;-78
2023/06/28 10:07:00;;;;;;;0.70;0.70;;;20.90;91.50;;;;;;5102588;28;20463;-79
2023/06/28 10:09:33;;;;;;;1.10;1.00;;;21.00;91.60;;;;;;5105102;28;20449;-77
2023/06/28 10:12:02;;;;;;;3.33;1.20;;;21.20;90.50;;;;;;5105151;28;20474;-77
2023/06/28 10:14:35;;;;;;;1.70;1.00;;;21.20;91.80;;;;;;5097555;28;20495;-77
2023/06/28 10:17:03;;;;;;;0.90;0.90;;;21.30;90.10;;;;;;5102419;28;20443;-78
2023/06/28 10:19:30;;;;;;;1.17;1.07;;;21.00;90.20;;;;;;5104166;28;21141;-78
2023/06/28 10:21:58;;;;;;;0.93;0.90;;;21.00;89.90;;;;;;5103400;28;20463;-78
2023/06/28 10:24:29;;;;;;;1.00;0.90;;;21.20;85.90;;;;;;5105161;28;20482;-77
2023/06/28 10:26:56;;;;;;;1.00;0.90;;;21.50;88.60;;;;;;5098797;28;20479;-78
2023/06/28 10:29:23;;;;;;;1.27;1.20;;;21.70;85.60;;;;;;5105203;28;20478;-76
2023/06/28 10:31:52;;;;;;;1.20;0.70;;;21.30;78.90;;;;;;5098893;28;20813;-76
2023/06/28 10:34:20;;;;;;;0.93;0.90;;;21.20;84.60;;;;;;5105310;28;20474;-76
2023/06/28 10:36:47;;;;;;;1.17;0.87;;;21.30;85.00;;;;;;5102745;28;20447;-78
2023/06/28 10:39:16;;;;;;;0.90;0.80;;;21.00;85.10;;;;;;5099220;28;20496;-76
2023/06/28 10:41:43;;;;;;;1.00;0.90;;;21.10;85.50;;;;;;5101967;28;20481;-77
2023/06/28 10:44:10;;;;;;;1.83;0.73;;;21.50;80.20;;;;;;5101592;28;20525;-78
2023/06/28 10:46:38;;;;;;;1.30;0.80;;;21.80;80.60;;;;;;5099231;28;20496;-78
2023/06/28 10:49:06;;;;;;;1.10;1.00;;;22.40;81.60;;;;;;5098533;28;20478;-79
2023/06/28 10:51:35;;;;;;;5.27;0.97;;;21.80;79.50;;;;;;5105491;28;20451;-78
2023/06/28 10:54:10;;;;;;;4.03;0.80;;;21.50;81.40;;;;;;5100742;28;20455;-79
2023/06/28 10:56:38;;;;;;;1.00;0.90;;;21.60;81.20;;;;;;5104832;28;20466;-76
2023/06/28 10:59:07;;;;;;;1.00;0.80;;;22.20;84.70;;;;;;5104141;28;21021;-79
2023/06/28 11:01:36;;;;;;;1.67;0.93;;;22.60;78.40;;;;;;5098044;28;20477;-78
2023/06/28 11:04:17;;;;;;;1.10;0.73;;;21.60;72.10;;;;;;5101808;28;20518;-79
2023/06/28 11:06:44;;;;;;;0.77;0.77;;;20.90;76.60;;;;;;5103742;28;20450;-78
2023/06/28 11:09:14;;;;;;;1.63;1.17;;;20.50;80.10;;;;;;5104549;28;20471;-78
2023/06/28 11:11:43;;;;;;;1.50;0.80;;;20.50;78.30;;;;;;5107648;27;20526;-80
2023/06/28 11:14:22;;;;;;;0.87;0.63;;;21.20;76.60;;;;;;5109498;28;21108;-76
2023/06/28 11:16:50;;;;;;;2.80;1.00;;;21.20;77.40;;;;;;5103632;27;20529;-77
2023/06/28 11:19:22;;;;;;;0.87;0.77;;;21.10;80.80;;;;;;5108061;28;20466;-77
2023/06/28 11:21:56;;;;;;;1.87;0.90;;;21.70;81.90;;;;;;5105087;28;20470;-77
2023/06/28 11:24:41;;;;;;;1.23;0.80;;;22.00;78.90;;;;;;5102097;28;20482;-79
2023/06/28 11:27:11;;;;;;;1.87;0.97;;;22.30;71.10;;;;;;5106420;28;20494;-78
2023/06/28 11:29:53;;;;;;;1.37;0.90;;;22.00;74.50;;;;;;5108630;28;20524;-77
2023/06/28 11:32:24;;;;;;;2.40;1.00;;;21.90;73.80;;;;;;5100241;28;20446;-78
2023/06/28 11:34:54;;;;;;;1.10;1.00;;;21.80;74.60;;;;;;5108129;27;20474;-76
2023/06/28 11:37:22;;;;;;;1.20;0.70;;;22.00;72.40;;;;;;5107154;28;20458;-76
2023/06/28 11:39:49;;;;;;;0.70;0.60;;;22.00;61.40;;;;;;5106835;27;20457;-76
2023/06/28 11:42:17;;;;;;;1.17;0.70;;;21.90;60.10;;;;;;5107291;28;20524;-80
2023/06/28 11:44:46;;;;;;;1.00;0.90;;;22.10;62.70;;;;;;5107209;27;20908;-77
2023/06/28 11:47:13;;;;;;;3.30;0.60;;;22.10;65.10;;;;;;5107553;28;20521;-78
2023/06/28 11:49:41;;;;;;;0.70;0.60;;;22.30;64.10;;;;;;5108138;28;20446;-78
2023/06/28 11:52:10;;;;;;;3.90;1.00;;;22.70;65.60;;;;;;5101560;27;20454;-78
2023/06/28 11:54:37;;;;;;;2.90;1.27;;;22.90;61.80;;;;;;5102868;28;20474;-78
2023/06/28 11:57:05;;;;;;;1.57;0.70;;;22.30;60.50;;;;;;5108512;28;20546;-78
2023/06/28 11:59:32;;;;;;;1.67;0.73;;;22.20;58.90;;;;;;5104812;28;20494;-78
2023/06/28 12:02:05;;;;;;;1.10;0.80;;;22.60;63.60;;;;;;5102421;28;20985;-77
2023/06/28 12:04:33;;;;;;;0.90;0.80;;;22.80;59.90;;;;;;5104862;28;20482;-78
2023/06/28 12:07:01;;;;;;;0.90;0.70;;;22.70;60.10;;;;;;5111451;27;20535;-77
2023/06/28 12:09:31;;;;;;;1.87;1.07;;;23.10;59.60;;;;;;5105632;28;20467;-77
2023/06/28 12:12:01;;;;;;;0.90;0.70;;;22.80;59.90;;;;;;5102506;28;20474;-77
2023/06/28 12:14:29;;;;;;;1.73;0.90;;;23.00;53.60;;;;;;5104271;28;20440;-76
2023/06/28 12:16:57;;;;;;;3.67;0.90;;;23.10;51.60;;;;;;5103415;28;20553;-78
2023/06/28 12:19:28;;;;;;;1.10;1.00;;;22.90;55.90;;;;;;5099900;28;20462;-76
2023/06/28 12:21:56;;;;;;;0.90;0.90;;;23.20;55.20;;;;;;5104926;28;20454;-76
2023/06/28 12:24:25;;;;;;;1.07;0.80;;;22.80;54.10;;;;;;5104590;27;20478;-77
2023/06/28 12:26:55;;;;;;;0.80;0.60;;;22.70;62.50;;;;;;5105572;28;20468;-76
2023/06/28 12:29:25;;;;;;;1.07;0.80;;;22.80;55.80;;;;;;5108883;28;20805;-77
2023/06/28 12:31:53;;;;;;;1.10;1.10;;;22.90;58.60;;;;;;5100438;28;20532;-77
2023/06/28 12:34:23;;;;;;;1.83;0.73;;;23.20;58.70;;;;;;5103197;28;20480;-77
2023/06/28 12:36:53;;;;;;;1.30;0.97;;;23.20;55.10;;;;;;5100850;28;20451;-77
2023/06/28 12:39:22;;;;;;;3.23;0.80;;;23.20;53.30;;;;;;5107092;28;20443;-80
2023/06/28 12:42:03;;;;;;;1.00;0.70;;;23.30;55.70;;;;;;5112966;27;20501;-78
2023/06/28 12:44:31;;;;;;;1.40;0.80;;;23.50;53.00;;;;;;5108484;28;20997;-77
2023/06/28 12:46:58;;;;;;;0.90;0.60;;;23.50;51.90;;;;;;5106033;28;20459;-76
2023/06/28 12:49:36;;;;;;;1.10;0.60;;;23.70;53.90;;;;;;5107299;27;20462;-77
2023/06/28 12:52:04;;;;;;;1.77;0.80;;;23.60;52.30;;;;;;5105350;28;20538;-77